x

Diamond Shoals (41025) Wave Buoy

6:50 - Sun 23rd Nov 2014 All times are EST. -5 hours from GMT.

  • Sig Wave height 6.6ft
  • Swell Direction
  • Peak Period 5s
  • Average Period 5s
  • Wind
    29mph, 34mph gusts
  • Aire Temp 70°f
  • Sea Pressure 1016.6mb
  • Diamond Shoals
  • Diamond Shoals

More Historic Weather Station data

Upgrade to MSW Pro to gain access to the past 30 days of data for over 8000 Wavebouys and Weather Stations around the globe.

Join Pro

Comparision Forecast

View Surf forecast
   
dom 11/23 6:50 6.5ft 5s 5s 29 34 mph 1016.6mb 70f
5:50 6ft 6s 5s 29 34 mph 1017.1mb 70f
4:50 6ft 5s 5s 25 31 mph 1018.5mb 70f
3:50 5ft 5s 4s 20 27 mph 1019.6mb 70f
2:50 4.5ft 5s 4s 20 29 mph 1020.2mb 69f
1:50 3.5ft 4s 4s 18 20 mph 1021.2mb 70f
12:50 3ft 4s 4s 13 18 mph 1022.2mb 70f
11:50 2.5ft 8s 4s 13 16 mph 1023.6mb 70f
10:50 2.5ft 9s 4s 13 16 mph 1024.8mb 70f
9:50 2.5ft 8s 5s 16 18 mph 1025.2mb 69f
8:50 2.5ft 8s 5s 13 16 mph 1025.6mb 69f
7:50 2.5ft 8s 5s 9 11 mph 1025.9mb 68f
6:50 2.5ft 8s 5s 9 13 mph 1026.2mb 66f
5:50 2.5ft 8s 5s 4 9 mph 1026.5mb 65f
4:50 2.5ft 8s 5s 9 11 mph 1025.9mb 65f
3:50 2.5ft 8s 5s 11 16 mph 1026mb 65f
2:50 2.5ft 9s 5s 11 16 mph 1026.5mb 64f
1:50 2.5ft 8s 5s 11 16 mph 1026.9mb 64f
12:50 2.5ft 8s 5s 13 18 mph 1027.3mb 63f
sáb 11/22 11:50 2.5ft 8s 5s 13 20 mph 1027.9mb 63f
10:50 2.5ft 8s 5s 11 16 mph 1028.7mb 63f
9:50 2.5ft 8s 6s 11 16 mph 1029mb 63f
8:50 2.5ft 8s 6s 4 7 mph 1028.7mb 60f
7:50 2.5ft 8s 6s  -  2 mph 1029.1mb 60f
6:50 2.5ft 9s 6s  -  mph 1029.8mb 60f
5:50 3ft 8s 6s 2 4 mph 1030mb 59f
4:50 2.5ft 8s 6s 2 7 mph 1030.3mb 59f
3:50 3ft 8s 6s 2 4 mph 1030.6mb 59f
2:50 3ft 9s 6s 2 7 mph 1030.9mb 58f
1:50 3.5ft 8s 6s 7 9 mph 1031.5mb 57f
12:50 3.5ft 8s 6s 7 11 mph 1032.1mb 56f
11:50 3.5ft 8s 6s 9 11 mph 1033.2mb 55f
10:50 3.5ft 8s 6s 7 9 mph 1034.5mb 54f
9:50 3.5ft 10s 6s 9 16 mph 1034.9mb 53f
8:50 4ft 10s 6s 11 16 mph 1034.7mb 53f
7:50 4ft 8s 6s 9 13 mph 1034.3mb 52f
6:50 4ft 9s 6s 11 20 mph 1033.8mb 51f
5:50 4.5ft 8s 6s 11 18 mph 1033.5mb 50f
4:50 4.5ft 10s 6s 11 18 mph 1033.3mb 49f
3:50 4.5ft 10s 6s 11 18 mph 1033.4mb 48f
2:50 5.5ft 10s 6s 13 18 mph 1033.7mb 48f
1:50 5ft 8s 6s 13 22 mph 1033.7mb 47f
12:50 5ft 8s 6s 13 20 mph 1033.9mb 47f
vie 11/21 11:50 5ft 9s 5s 18 25 mph 1033.7mb 46f
10:50 5ft 9s 6s 18 25 mph 1033.7mb 46f
9:50 5ft 8s 5s 18 25 mph 1033.7mb 46f
8:50 5ft 7s 5s 20 25 mph 1033.3mb 46f
7:50 4.5ft 6s 5s 18 22 mph 1033.2mb 45f
6:50 4.5ft 6s 5s 18 25 mph 1032.9mb 45f
5:50 4.5ft 7s 5s 20 29 mph 1032mb 45f
4:50 4.5ft 6s 5s 18 22 mph 1031.5mb 46f
3:50 4.5ft 6s 5s 18 25 mph 1030.3mb 47f
2:50 4ft 6s 5s 18 22 mph 1029.5mb 47f
1:50 4.5ft 6s 5s 16 22 mph 1029mb 47f
12:50 4.5ft 6s 5s 20 27 mph 1028.7mb 48f
7:50 5.5ft 8s 5s 22 27 mph 1025.6mb 51f
6:50 6ft 8s 5s 20 27 mph 1024.2mb 52f
5:50 6ft 7s 5s 22 29 mph 1023.1mb 53f
4:50 6ft 8s 5s 25 31 mph 1022.1mb 54f
3:50 6.5ft 8s 5s 25 29 mph 1021.4mb 56f
2:50 7ft 7s 5s 27 34 mph 1020.6mb 60f
1:50 7ft 7s 5s 27 31 mph 1020.5mb 61f
12:50 7ft 8s 5s 25 29 mph 1020.5mb 61f
jue 11/20 11:50 7.5ft 7s 5s 25 31 mph 1020.3mb 61f
10:50 7.5ft 7s 5s 25 31 mph 1019.8mb 61f
9:50 7ft 7s 5s 25 31 mph 1019.7mb 61f
8:50 6.5ft 7s 5s 25 34 mph 1019.4mb 61f
7:50 6.5ft 7s 5s 25 34 mph 1019.1mb 61f
6:50 7ft 6s 5s 25 34 mph 1018.7mb 61f
5:50 6ft 6s 5s 22 29 mph 1017.8mb 60f
4:50 6ft 6s 5s 25 31 mph 1017.6mb 60f
3:50 6.5ft 6s 5s 25 34 mph 1017.3mb 59f
2:50 6ft 6s 5s 29 36 mph 1017.5mb 58f
1:50 5ft 6s 4s 27 36 mph 1017.5mb 59f
12:50 4.5ft 6s 4s 22 31 mph 1019.1mb 57f
11:50 4.5ft 5s 4s 22 27 mph 1020.6mb 56f
10:50 4ft 5s 4s 20 27 mph 1021.8mb 55f
9:50 4ft 6s 4s 18 22 mph 1022.6mb 53f
8:50 4ft 6s 4s 18 22 mph 1022.7mb 53f
7:50 4.5ft 6s 4s 18 22 mph 1022.7mb 53f
6:50 4.5ft 5s 4s 22 27 mph 1022.1mb 53f
5:50 4ft 5s 4s 25 29 mph 1022.1mb 52f
4:50 3.5ft 5s 4s 22 29 mph 1022.3mb 52f
3:50 3.5ft 5s 4s 20 25 mph 1023mb 52f
2:50 3.5ft 5s 4s 20 27 mph 1023.4mb 53f
1:50 4ft 5s 4s 22 29 mph 1023.5mb 53f
12:50 3.5ft 4s 4s 25 29 mph 1023.6mb 55f